Time;durP1;ratioP1;P1;durP2;ratioP2;P2;SDS_P1;SDS_P2;PMS_P1;PMS_P2;Temp;Humidity;BMP_temperature;BMP_pressure;BME280_temperature;BME280_humidity;BME280_pressure;Samples;Min_cycle;Max_cycle;Signal;HPM_P1;HPM_P2
2023/04/29 00:01:38;;;;;;;3.78;2.15;;;;;;;;;;5053985;28;20360;-59
2023/04/29 00:04:05;;;;;;;2.00;1.55;;;;;;;;;;5054009;28;20375;-59
2023/04/29 00:06:31;;;;;;;2.10;1.25;;;;;;;;;;5054435;28;20032;-59
2023/04/29 00:08:57;;;;;;;2.28;1.33;;;;;;;;;;5054397;28;20033;-59
2023/04/29 00:11:23;;;;;;;2.65;1.33;;;;;;;;;;5054176;28;20082;-59
2023/04/29 00:13:49;;;;;;;2.22;1.55;;;;;;;;;;5053777;28;20025;-59
2023/04/29 00:16:15;;;;;;;1.98;1.27;;;;;;;;;;5054330;28;20037;-59
2023/04/29 00:18:41;;;;;;;1.75;1.00;;;;;;;;;;5053580;28;20379;-59
2023/04/29 00:21:07;;;;;;;2.35;1.52;;;;;;;;;;5053139;28;20025;-59
2023/04/29 00:23:33;;;;;;;2.20;1.35;;;;;;;;;;5054473;28;20033;-59
2023/04/29 00:25:59;;;;;;;3.13;1.50;;;;;;;;;;5053764;28;20043;-59
2023/04/29 00:28:25;;;;;;;2.17;1.40;;;;;;;;;;5053773;28;20471;-59
2023/04/29 00:30:52;;;;;;;1.70;1.02;;;;;;;;;;5053657;28;20025;-59
2023/04/29 00:33:18;;;;;;;2.88;1.60;;;;;;;;;;5053594;28;20029;-59
2023/04/29 00:35:44;;;;;;;2.67;1.45;;;;;;;;;;5054403;28;20029;-59
2023/04/29 00:38:10;;;;;;;5.45;1.90;;;;;;;;;;5053537;28;20029;-59
2023/04/29 00:40:36;;;;;;;2.13;1.45;;;;;;;;;;5053708;28;20060;-59
2023/04/29 00:43:02;;;;;;;2.50;1.42;;;;;;;;;;5053423;28;20071;-59
2023/04/29 00:45:28;;;;;;;2.85;1.50;;;;;;;;;;5054051;28;20025;-59
2023/04/29 00:47:54;;;;;;;2.53;1.50;;;;;;;;;;5053044;28;20037;-59
2023/04/29 00:50:21;;;;;;;2.00;1.38;;;;;;;;;;5053993;28;20075;-59
2023/04/29 00:52:47;;;;;;;2.72;1.73;;;;;;;;;;5053411;28;20031;-59
2023/04/29 00:55:13;;;;;;;2.17;1.35;;;;;;;;;;5053421;28;20029;-59
2023/04/29 00:57:39;;;;;;;2.47;1.23;;;;;;;;;;5053698;28;20375;-59
2023/04/29 01:00:05;;;;;;;2.03;1.20;;;;;;;;;;5053037;28;20025;-59
2023/04/29 01:02:32;;;;;;;2.45;1.73;;;;;;;;;;5053423;28;20021;-59
2023/04/29 01:04:58;;;;;;;1.88;1.23;;;;;;;;;;5053399;28;20478;-59
2023/04/29 01:07:33;;;;;;;2.30;1.45;;;;;;;;;;5053976;28;20029;-59
2023/04/29 01:10:01;;;;;;;4.75;1.75;;;;;;;;;;5053425;28;20033;-59
2023/04/29 01:12:40;;;;;;;3.08;1.88;;;;;;;;;;5053330;28;20490;-59
2023/04/29 01:15:18;;;;;;;3.95;1.33;;;;;;;;;;5053552;28;20045;-59
2023/04/29 01:17:47;;;;;;;1.85;1.17;;;;;;;;;;5053590;28;20036;-59
2023/04/29 01:20:13;;;;;;;2.50;1.65;;;;;;;;;;5053331;28;20173;-59
2023/04/29 01:22:40;;;;;;;2.20;1.38;;;;;;;;;;5054063;28;20358;-59
2023/04/29 01:25:06;;;;;;;1.90;1.13;;;;;;;;;;5053715;28;20029;-59
2023/04/29 01:27:32;;;;;;;2.70;1.75;;;;;;;;;;5053446;28;20025;-59
2023/04/29 01:30:18;;;;;;;1.52;1.00;;;;;;;;;;5053139;28;20033;-59
2023/04/29 01:32:52;;;;;;;2.30;1.23;;;;;;;;;;5043397;28;20036;-59
2023/04/29 01:35:41;;;;;;;2.10;1.55;;;;;;;;;;5057454;28;20028;-59
2023/04/29 01:38:28;;;;;;;2.08;1.50;;;;;;;;;;5053912;28;20121;-59
2023/04/29 01:41:06;;;;;;;1.90;1.10;;;;;;;;;;5056683;28;20017;-59
2023/04/29 01:43:33;;;;;;;2.15;1.30;;;;;;;;;;5056470;28;20064;-59
2023/04/29 01:46:00;;;;;;;2.90;1.50;;;;;;;;;;5056643;28;20053;-63
2023/04/29 01:48:26;;;;;;;2.60;1.60;;;;;;;;;;5056334;28;20032;-58
2023/04/29 01:50:52;;;;;;;2.83;1.75;;;;;;;;;;5056660;28;20070;-59
2023/04/29 01:53:18;;;;;;;1.95;1.13;;;;;;;;;;5057075;28;20066;-59
2023/04/29 01:55:45;;;;;;;2.08;1.25;;;;;;;;;;5057060;28;20439;-58
2023/04/29 01:58:11;;;;;;;2.58;1.25;;;;;;;;;;5057053;28;20065;-59
2023/04/29 02:00:37;;;;;;;4.22;1.60;;;;;;;;;;5056712;28;20129;-59
2023/04/29 02:03:04;;;;;;;2.90;2.10;;;;;;;;;;5056308;28;20025;-59
2023/04/29 02:05:32;;;;;;;3.63;1.67;;;;;;;;;;5056356;28;20036;-59
2023/04/29 02:07:58;;;;;;;2.13;1.40;;;;;;;;;;5056828;28;20120;-59
2023/04/29 02:10:24;;;;;;;2.50;1.50;;;;;;;;;;5056223;28;20412;-59
2023/04/29 02:12:50;;;;;;;2.70;1.70;;;;;;;;;;5056489;28;20021;-59
2023/04/29 02:15:16;;;;;;;2.50;1.65;;;;;;;;;;5055943;28;20053;-59
2023/04/29 02:17:42;;;;;;;1.95;1.13;;;;;;;;;;5056097;28;20044;-59
2023/04/29 02:20:09;;;;;;;2.80;1.60;;;;;;;;;;5055830;28;20039;-59
2023/04/29 02:22:35;;;;;;;2.40;1.40;;;;;;;;;;5055993;28;20131;-59
2023/04/29 02:25:01;;;;;;;2.03;1.15;;;;;;;;;;5056773;28;20029;-59
2023/04/29 02:27:27;;;;;;;2.00;1.23;;;;;;;;;;5056491;28;20032;-59
2023/04/29 02:29:53;;;;;;;2.35;1.55;;;;;;;;;;5055955;28;20067;-59
2023/04/29 02:32:19;;;;;;;2.50;1.48;;;;;;;;;;5055898;28;20029;-59
2023/04/29 02:34:45;;;;;;;1.85;1.23;;;;;;;;;;5055775;28;20028;-59
2023/04/29 02:37:11;;;;;;;2.40;1.38;;;;;;;;;;5056124;28;20052;-59
2023/04/29 02:39:37;;;;;;;2.28;1.20;;;;;;;;;;5056014;28;20020;-59
2023/04/29 02:42:03;;;;;;;2.75;1.40;;;;;;;;;;5055639;28;20033;-59
2023/04/29 02:44:30;;;;;;;2.60;1.50;;;;;;;;;;5054762;28;20459;-59
2023/04/29 02:46:56;;;;;;;2.40;1.17;;;;;;;;;;5056181;28;20048;-59
2023/04/29 02:49:22;;;;;;;2.30;1.45;;;;;;;;;;5055541;28;20433;-59
2023/04/29 02:51:49;;;;;;;2.20;1.30;;;;;;;;;;5055776;28;20548;-59
2023/04/29 02:54:15;;;;;;;4.63;1.60;;;;;;;;;;5055475;28;20033;-59
2023/04/29 02:56:41;;;;;;;2.35;1.05;;;;;;;;;;5055936;28;20033;-59
2023/04/29 02:59:08;;;;;;;2.70;1.50;;;;;;;;;;5055113;28;20039;-59
2023/04/29 03:01:34;;;;;;;3.42;1.70;;;;;;;;;;5055233;28;20100;-59
2023/04/29 03:04:00;;;;;;;2.50;1.80;;;;;;;;;;5055218;28;20025;-59
2023/04/29 03:06:26;;;;;;;2.75;1.60;;;;;;;;;;5055234;28;20394;-59
2023/04/29 03:08:52;;;;;;;2.20;1.50;;;;;;;;;;5055651;28;20430;-59
2023/04/29 03:11:18;;;;;;;1.92;1.23;;;;;;;;;;5055578;28;20066;-59
2023/04/29 03:13:44;;;;;;;2.80;1.85;;;;;;;;;;5055336;28;20398;-59
2023/04/29 03:16:13;;;;;;;2.70;1.85;;;;;;;;;;5055916;28;20431;-59
2023/04/29 03:18:39;;;;;;;2.53;1.60;;;;;;;;;;5054888;28;20035;-59
2023/04/29 03:21:05;;;;;;;4.40;2.00;;;;;;;;;;5055371;28;20029;-59
2023/04/29 03:23:31;;;;;;;2.80;2.10;;;;;;;;;;5054547;28;20033;-59
2023/04/29 03:25:57;;;;;;;3.47;1.75;;;;;;;;;;5055290;28;20037;-59
2023/04/29 03:28:23;;;;;;;2.13;1.25;;;;;;;;;;5055032;28;20029;-59
2023/04/29 03:30:49;;;;;;;2.50;1.60;;;;;;;;;;5054995;28;20344;-59
2023/04/29 03:33:15;;;;;;;2.97;2.15;;;;;;;;;;5054645;28;20422;-59
2023/04/29 03:35:41;;;;;;;3.35;2.13;;;;;;;;;;5055481;28;20067;-59
2023/04/29 03:38:07;;;;;;;3.22;2.10;;;;;;;;;;5055163;28;20033;-59
2023/04/29 03:40:33;;;;;;;3.20;2.35;;;;;;;;;;5054613;28;20021;-59
2023/04/29 03:43:00;;;;;;;3.08;2.20;;;;;;;;;;5054437;28;20029;-59
2023/04/29 03:45:25;;;;;;;2.42;2.03;;;;;;;;;;5054241;28;20515;-59
2023/04/29 03:47:53;;;;;;;3.20;2.10;;;;;;;;;;5054343;28;20120;-59
2023/04/29 03:50:19;;;;;;;2.70;2.03;;;;;;;;;;5054419;28;20033;-59
2023/04/29 03:52:45;;;;;;;2.47;1.75;;;;;;;;;;5054867;28;20021;-59
2023/04/29 03:55:11;;;;;;;3.03;2.30;;;;;;;;;;5054551;28;20115;-59
2023/04/29 03:57:37;;;;;;;3.03;2.13;;;;;;;;;;5053960;28;20061;-59
2023/04/29 04:00:04;;;;;;;3.67;2.10;;;;;;;;;;5054302;28;20087;-59
2023/04/29 04:02:30;;;;;;;2.60;2.05;;;;;;;;;;5054155;28;20067;-59
2023/04/29 04:04:57;;;;;;;2.63;2.00;;;;;;;;;;5054239;28;20084;-59
2023/04/29 04:07:23;;;;;;;2.67;2.00;;;;;;;;;;5054671;28;20371;-59
2023/04/29 04:09:49;;;;;;;4.43;1.77;;;;;;;;;;5054011;28;20039;-59
2023/04/29 04:12:15;;;;;;;4.57;1.80;;;;;;;;;;5054077;28;20039;-59
2023/04/29 04:14:41;;;;;;;2.05;1.60;;;;;;;;;;5054118;28;20142;-59
2023/04/29 04:17:07;;;;;;;2.35;1.75;;;;;;;;;;5053976;28;20031;-59
2023/04/29 04:19:33;;;;;;;2.70;1.67;;;;;;;;;;5054022;28;20021;-59
2023/04/29 04:21:59;;;;;;;3.47;2.28;;;;;;;;;;5053460;28;20035;-59
2023/04/29 04:24:25;;;;;;;3.13;1.80;;;;;;;;;;5053883;28;20029;-59
2023/04/29 04:26:51;;;;;;;2.53;1.73;;;;;;;;;;5053810;28;20036;-59
2023/04/29 04:29:17;;;;;;;2.42;1.70;;;;;;;;;;5053836;28;20032;-59
2023/04/29 04:31:43;;;;;;;4.40;1.83;;;;;;;;;;5053556;28;20025;-59
2023/04/29 04:34:09;;;;;;;2.55;1.60;;;;;;;;;;5053733;28;20036;-59
2023/04/29 04:36:35;;;;;;;2.45;1.98;;;;;;;;;;5054043;28;20037;-59
2023/04/29 04:39:01;;;;;;;1.98;1.50;;;;;;;;;;5053677;28;20021;-59
2023/04/29 04:41:30;;;;;;;2.65;1.83;;;;;;;;;;5054177;28;20025;-59
2023/04/29 04:43:56;;;;;;;2.63;1.60;;;;;;;;;;5054456;28;20107;-59
2023/04/29 04:46:22;;;;;;;2.90;2.03;;;;;;;;;;5054357;28;20044;-59
2023/04/29 04:48:48;;;;;;;2.58;2.00;;;;;;;;;;5053666;28;20021;-59
2023/04/29 04:51:14;;;;;;;2.67;1.85;;;;;;;;;;5053613;28;20033;-59
2023/04/29 04:53:40;;;;;;;2.70;1.98;;;;;;;;;;5053622;28;20021;-59
2023/04/29 04:56:07;;;;;;;2.58;2.05;;;;;;;;;;5053668;28;20033;-59
2023/04/29 04:58:33;;;;;;;6.55;2.33;;;;;;;;;;5053568;28;20110;-59
2023/04/29 05:00:59;;;;;;;2.72;2.15;;;;;;;;;;5053457;28;20029;-59
2023/04/29 05:03:25;;;;;;;4.20;2.17;;;;;;;;;;5054228;28;20029;-59
2023/04/29 05:05:59;;;;;;;2.90;2.15;;;;;;;;;;5054090;28;20025;-59
2023/04/29 05:08:25;;;;;;;2.80;2.00;;;;;;;;;;5055690;28;20035;-59
2023/04/29 05:10:51;;;;;;;3.83;2.67;;;;;;;;;;5057369;28;20510;-59
2023/04/29 05:13:17;;;;;;;3.53;2.20;;;;;;;;;;5057326;28;20021;-59
2023/04/29 05:15:43;;;;;;;4.65;2.33;;;;;;;;;;5058579;28;20048;-59
2023/04/29 05:18:10;;;;;;;4.15;2.35;;;;;;;;;;5057223;28;20017;-59
2023/04/29 05:20:36;;;;;;;3.63;2.38;;;;;;;;;;5057315;28;20080;-59
2023/04/29 05:23:02;;;;;;;2.45;1.85;;;;;;;;;;5057188;28;20025;-59
2023/04/29 05:25:28;;;;;;;2.42;2.03;;;;;;;;;;5057738;28;20367;-59
2023/04/29 05:27:54;;;;;;;2.47;1.90;;;;;;;;;;5057085;28;20036;-59
2023/04/29 05:30:21;;;;;;;2.22;1.65;;;;;;;;;;5057059;28;20029;-59
2023/04/29 05:32:50;;;;;;;3.33;2.67;;;;;;;;;;5057526;28;20082;-59
2023/04/29 05:35:16;;;;;;;2.72;2.17;;;;;;;;;;5056967;28;20039;-59
2023/04/29 05:37:42;;;;;;;2.75;2.00;;;;;;;;;;5056968;28;20378;-59
2023/04/29 05:40:09;;;;;;;3.22;2.17;;;;;;;;;;5056865;28;20021;-59
2023/04/29 05:42:35;;;;;;;6.10;2.10;;;;;;;;;;5056770;28;20029;-59
2023/04/29 05:45:01;;;;;;;2.88;2.50;;;;;;;;;;5057396;28;20025;-59
2023/04/29 05:47:27;;;;;;;3.08;2.40;;;;;;;;;;5056644;28;20536;-59
2023/04/29 05:49:53;;;;;;;3.10;2.50;;;;;;;;;;5056733;28;20029;-59
2023/04/29 05:52:19;;;;;;;3.25;2.75;;;;;;;;;;5056668;28;20405;-59
2023/04/29 05:54:45;;;;;;;3.13;2.47;;;;;;;;;;5057438;28;20031;-59
2023/04/29 05:57:11;;;;;;;4.05;3.30;;;;;;;;;;5057127;28;20403;-59
2023/04/29 05:59:37;;;;;;;3.92;3.53;;;;;;;;;;5056739;28;20029;-59
2023/04/29 06:02:03;;;;;;;3.33;2.70;;;;;;;;;;5056502;28;20025;-59
2023/04/29 06:04:29;;;;;;;3.38;2.90;;;;;;;;;;5057247;28;20538;-59
2023/04/29 06:06:56;;;;;;;3.38;2.28;;;;;;;;;;5056583;28;20451;-59
2023/04/29 06:09:25;;;;;;;4.05;2.42;;;;;;;;;;5056293;28;20040;-59
2023/04/29 06:11:51;;;;;;;3.45;2.45;;;;;;;;;;5056214;28;20025;-59
2023/04/29 06:14:17;;;;;;;3.40;2.90;;;;;;;;;;5056927;28;20059;-59
2023/04/29 06:16:43;;;;;;;5.07;2.65;;;;;;;;;;5056495;28;20033;-59
2023/04/29 06:19:09;;;;;;;2.60;2.30;;;;;;;;;;5055165;28;20025;-59
2023/04/29 06:21:35;;;;;;;3.55;2.80;;;;;;;;;;5056055;28;20036;-59
2023/04/29 06:24:01;;;;;;;2.80;2.40;;;;;;;;;;5056395;28;20451;-58
2023/04/29 06:26:27;;;;;;;3.28;2.53;;;;;;;;;;5055931;28;20029;-59
2023/04/29 06:28:53;;;;;;;3.42;3.13;;;;;;;;;;5055898;28;20123;-59
2023/04/29 06:31:19;;;;;;;3.22;2.63;;;;;;;;;;5056427;28;20025;-59
2023/04/29 06:33:45;;;;;;;3.53;2.50;;;;;;;;;;5055872;28;20442;-59
2023/04/29 06:36:11;;;;;;;2.35;1.95;;;;;;;;;;5056410;28;20071;-59
2023/04/29 06:38:37;;;;;;;3.10;2.60;;;;;;;;;;5056295;28;20060;-59
2023/04/29 06:41:03;;;;;;;3.58;3.13;;;;;;;;;;5055759;28;20052;-59
2023/04/29 06:43:30;;;;;;;3.90;3.28;;;;;;;;;;5055553;28;20063;-59
2023/04/29 06:45:56;;;;;;;4.15;3.03;;;;;;;;;;5056015;28;20055;-59
2023/04/29 06:48:22;;;;;;;3.80;2.85;;;;;;;;;;5055561;28;20033;-59
2023/04/29 06:50:52;;;;;;;3.40;2.80;;;;;;;;;;5055735;28;20067;-58
2023/04/29 06:53:18;;;;;;;3.45;2.95;;;;;;;;;;5055471;28;20029;-59
2023/04/29 06:55:48;;;;;;;3.30;3.00;;;;;;;;;;5055949;28;20025;-59
2023/04/29 06:58:14;;;;;;;6.18;2.67;;;;;;;;;;5055614;28;20503;-59
2023/04/29 07:00:43;;;;;;;3.22;2.33;;;;;;;;;;5055282;28;20140;-59
2023/04/29 07:03:10;;;;;;;2.88;2.05;;;;;;;;;;5054988;28;20482;-59
2023/04/29 07:05:38;;;;;;;3.58;2.58;;;;;;;;;;5056087;28;20021;-59
2023/04/29 07:08:04;;;;;;;2.70;2.17;;;;;;;;;;5055594;28;20167;-59
2023/04/29 07:10:30;;;;;;;3.88;2.92;;;;;;;;;;5054884;28;20033;-59
2023/04/29 07:12:56;;;;;;;3.10;2.80;;;;;;;;;;5055121;28;20372;-59
2023/04/29 07:15:22;;;;;;;4.03;2.95;;;;;;;;;;5054972;28;20094;-59
2023/04/29 07:17:48;;;;;;;3.53;2.97;;;;;;;;;;5055281;28;20033;-59
2023/04/29 07:20:14;;;;;;;3.88;2.45;;;;;;;;;;5055166;28;20099;-58
2023/04/29 07:22:40;;;;;;;3.95;2.80;;;;;;;;;;5054862;28;20382;-58
2023/04/29 07:25:06;;;;;;;2.95;2.38;;;;;;;;;;5053492;28;20104;-59
2023/04/29 07:27:34;;;;;;;2.85;2.00;;;;;;;;;;5054671;28;20205;-57
2023/04/29 07:30:00;;;;;;;2.95;2.20;;;;;;;;;;5055036;28;20090;-58
2023/04/29 07:32:26;;;;;;;2.30;1.85;;;;;;;;;;5055033;28;20021;-58
2023/04/29 07:34:52;;;;;;;2.60;1.90;;;;;;;;;;5054714;28;20028;-57
2023/04/29 07:37:18;;;;;;;2.63;2.22;;;;;;;;;;5054462;28;20383;-58
2023/04/29 07:39:45;;;;;;;2.40;2.00;;;;;;;;;;5054454;28;20025;-58
2023/04/29 07:42:11;;;;;;;2.55;1.77;;;;;;;;;;5055119;28;20036;-57
2023/04/29 07:44:37;;;;;;;2.28;1.58;;;;;;;;;;5055053;28;20446;-58
2023/04/29 07:47:03;;;;;;;2.33;1.70;;;;;;;;;;5054315;28;20045;-57
2023/04/29 07:49:29;;;;;;;2.80;1.80;;;;;;;;;;5054146;28;20096;-58
2023/04/29 07:51:55;;;;;;;2.28;1.50;;;;;;;;;;5054612;28;20079;-57
2023/04/29 07:54:21;;;;;;;2.00;1.50;;;;;;;;;;5054298;28;20029;-57
2023/04/29 07:56:47;;;;;;;1.63;1.17;;;;;;;;;;5054676;28;20410;-58
2023/04/29 07:59:13;;;;;;;1.65;1.05;;;;;;;;;;5054206;28;20079;-58
2023/04/29 08:01:42;;;;;;;2.17;1.45;;;;;;;;;;5054777;28;20029;-58
2023/04/29 08:04:08;;;;;;;1.85;1.27;;;;;;;;;;5054530;28;20367;-58
2023/04/29 08:06:34;;;;;;;1.90;1.30;;;;;;;;;;5053900;28;20467;-58
2023/04/29 08:09:00;;;;;;;1.70;1.10;;;;;;;;;;5053913;28;20059;-56
2023/04/29 08:11:27;;;;;;;1.80;1.30;;;;;;;;;;5053799;28;20032;-58
2023/04/29 08:13:53;;;;;;;1.92;1.17;;;;;;;;;;5053586;28;20182;-58
2023/04/29 08:16:20;;;;;;;1.98;1.17;;;;;;;;;;5054684;28;20394;-58
2023/04/29 08:18:46;;;;;;;2.30;1.50;;;;;;;;;;5053657;28;20036;-58
2023/04/29 08:21:12;;;;;;;1.90;1.20;;;;;;;;;;5054354;28;20029;-58
2023/04/29 08:23:39;;;;;;;2.80;1.77;;;;;;;;;;5053830;28;20021;-58
2023/04/29 08:26:05;;;;;;;2.00;1.30;;;;;;;;;;5053642;28;20025;-58
2023/04/29 08:28:31;;;;;;;1.90;1.23;;;;;;;;;;5054017;28;20074;-58
2023/04/29 08:30:57;;;;;;;2.53;1.73;;;;;;;;;;5053662;28;20025;-58
2023/04/29 08:33:23;;;;;;;2.08;1.30;;;;;;;;;;5054006;28;20044;-58
2023/04/29 08:35:49;;;;;;;1.75;1.00;;;;;;;;;;5054217;28;20017;-58
2023/04/29 08:38:15;;;;;;;1.40;0.80;;;;;;;;;;5053261;28;20112;-58
2023/04/29 08:40:42;;;;;;;1.88;1.13;;;;;;;;;;5053366;28;20172;-58
2023/04/29 08:43:09;;;;;;;2.20;1.50;;;;;;;;;;5052889;28;20099;-58
2023/04/29 08:45:36;;;;;;;1.60;0.98;;;;;;;;;;5053978;28;20029;-58
2023/04/29 08:48:03;;;;;;;1.45;0.90;;;;;;;;;;5053308;28;20076;-58
2023/04/29 08:50:30;;;;;;;1.70;0.98;;;;;;;;;;5053397;28;20064;-57
2023/04/29 08:52:56;;;;;;;1.92;1.08;;;;;;;;;;5053539;28;20037;-58
2023/04/29 08:55:22;;;;;;;2.03;1.02;;;;;;;;;;5054073;28;20090;-58
2023/04/29 08:57:49;;;;;;;2.05;1.15;;;;;;;;;;5053260;28;20502;-59
2023/04/29 09:00:17;;;;;;;1.33;0.80;;;;;;;;;;5054260;28;20021;-58
2023/04/29 09:02:45;;;;;;;2.28;1.45;;;;;;;;;;5053881;28;20098;-58
2023/04/29 09:05:12;;;;;;;3.13;1.38;;;;;;;;;;5053428;28;20025;-58
2023/04/29 09:07:38;;;;;;;2.90;1.70;;;;;;;;;;5053466;28;20367;-58
2023/04/29 09:10:05;;;;;;;3.22;1.80;;;;;;;;;;5054358;28;20341;-58
2023/04/29 09:12:31;;;;;;;2.97;1.67;;;;;;;;;;5053391;28;20032;-58
2023/04/29 09:14:57;;;;;;;2.40;1.63;;;;;;;;;;5054055;28;20056;-57
2023/04/29 09:17:42;;;;;;;2.50;2.03;;;;;;;;;;5053358;28;20029;-58
2023/04/29 09:20:22;;;;;;;2.58;1.75;;;;;;;;;;5053305;28;20032;-58
2023/04/29 09:22:48;;;;;;;2.33;1.92;;;;;;;;;;5053603;28;20086;-58
2023/04/29 09:25:14;;;;;;;3.00;1.80;;;;;;;;;;5053410;28;20029;-57
2023/04/29 09:27:41;;;;;;;2.25;1.85;;;;;;;;;;5051935;28;20029;-58
2023/04/29 09:30:08;;;;;;;2.28;1.70;;;;;;;;;;5053024;28;20032;-58
2023/04/29 09:32:34;;;;;;;2.53;1.95;;;;;;;;;;5053218;28;20032;-58
2023/04/29 09:35:19;;;;;;;3.22;2.30;;;;;;;;;;5053433;28;20040;-57
2023/04/29 09:37:45;;;;;;;2.88;2.22;;;;;;;;;;5053016;28;20025;-58
2023/04/29 09:40:29;;;;;;;2.47;2.00;;;;;;;;;;5053304;28;20496;-58
2023/04/29 09:42:56;;;;;;;3.88;2.30;;;;;;;;;;5052962;28;20095;-58
2023/04/29 09:45:38;;;;;;;2.67;2.22;;;;;;;;;;5052939;28;20033;-58
2023/04/29 09:48:05;;;;;;;3.88;2.08;;;;;;;;;;5052533;28;20040;-58
2023/04/29 09:50:36;;;;;;;3.22;2.67;;;;;;;;;;5052641;28;20033;-58
2023/04/29 09:53:02;;;;;;;2.70;1.98;;;;;;;;;;5052688;28;20542;-58
2023/04/29 09:55:29;;;;;;;2.85;1.90;;;;;;;;;;5055329;28;20025;-58
2023/04/29 09:57:55;;;;;;;2.85;1.80;;;;;;;;;;5056700;28;20036;-58
2023/04/29 10:00:21;;;;;;;2.72;1.80;;;;;;;;;;5056264;28;20367;-59
2023/04/29 10:02:51;;;;;;;2.60;1.90;;;;;;;;;;5055974;28;20459;-58
2023/04/29 10:05:17;;;;;;;2.13;1.50;;;;;;;;;;5056444;28;20028;-58
2023/04/29 10:07:46;;;;;;;3.40;1.85;;;;;;;;;;5056413;28;20035;-57
2023/04/29 10:10:12;;;;;;;2.42;1.70;;;;;;;;;;5056702;28;20036;-57
2023/04/29 10:12:39;;;;;;;2.92;1.55;;;;;;;;;;5056364;28;20078;-58
2023/04/29 10:15:08;;;;;;;2.40;1.70;;;;;;;;;;5056052;28;20048;-58
2023/04/29 10:17:34;;;;;;;2.55;1.73;;;;;;;;;;5056554;28;20036;-57
2023/04/29 10:20:05;;;;;;;2.00;1.30;;;;;;;;;;5056458;28;20108;-58
2023/04/29 10:22:41;;;;;;;2.42;1.45;;;;;;;;;;5055534;28;20374;-58
2023/04/29 10:25:08;;;;;;;2.00;1.40;;;;;;;;;;5055855;28;20386;-57
2023/04/29 10:27:36;;;;;;;1.90;1.23;;;;;;;;;;5056026;28;20025;-57
2023/04/29 10:30:03;;;;;;;2.80;1.75;;;;;;;;;;5056012;28;20029;-58
2023/04/29 10:32:29;;;;;;;2.28;1.63;;;;;;;;;;5055632;28;20458;-57
2023/04/29 10:34:56;;;;;;;2.10;1.25;;;;;;;;;;5055431;28;20439;-58
2023/04/29 10:37:23;;;;;;;1.63;0.93;;;;;;;;;;5056209;28;20037;-58
2023/04/29 10:39:52;;;;;;;2.38;1.40;;;;;;;;;;5055618;28;20022;-58
2023/04/29 10:42:41;;;;;;;2.55;1.20;;;;;;;;;;5055609;28;20029;-57
2023/04/29 10:45:20;;;;;;;7.45;1.48;;;;;;;;;;5055397;28;20021;-58
2023/04/29 10:48:01;;;;;;;1.83;1.20;;;;;;;;;;5055535;28;20484;-57
2023/04/29 10:50:46;;;;;;;2.15;1.40;;;;;;;;;;5055459;28;20036;-58
2023/04/29 10:53:13;;;;;;;2.30;1.45;;;;;;;;;;5055275;28;20108;-58
2023/04/29 10:55:39;;;;;;;2.15;1.30;;;;;;;;;;5056052;28;20051;-58
2023/04/29 10:58:05;;;;;;;1.98;1.35;;;;;;;;;;5055230;28;20025;-58
2023/04/29 11:00:32;;;;;;;1.80;1.35;;;;;;;;;;5055538;28;20032;-57
2023/04/29 11:03:00;;;;;;;2.20;1.75;;;;;;;;;;5055191;28;20371;-58
2023/04/29 11:05:33;;;;;;;2.53;1.65;;;;;;;;;;5055026;28;20025;-57
2023/04/29 11:08:23;;;;;;;3.63;2.20;;;;;;;;;;5055472;28;20028;-57
2023/04/29 11:11:03;;;;;;;2.00;1.50;;;;;;;;;;5055240;28;20352;-57
2023/04/29 11:13:32;;;;;;;3.58;2.00;;;;;;;;;;5055653;28;20029;-58
2023/04/29 11:16:08;;;;;;;2.10;1.50;;;;;;;;;;5055794;28;20127;-58
2023/04/29 11:18:35;;;;;;;7.80;2.10;;;;;;;;;;5055494;28;20029;-57
2023/04/29 11:21:21;;;;;;;3.30;1.92;;;;;;;;;;5054868;28;20029;-57
2023/04/29 11:23:47;;;;;;;2.45;1.80;;;;;;;;;;5054685;28;20467;-58
2023/04/29 11:26:13;;;;;;;2.83;1.85;;;;;;;;;;5054773;28;20032;-57
2023/04/29 11:28:41;;;;;;;2.58;1.50;;;;;;;;;;5053916;28;20025;-57
2023/04/29 11:31:07;;;;;;;2.50;1.73;;;;;;;;;;5054739;28;20036;-57
2023/04/29 11:33:34;;;;;;;3.33;1.83;;;;;;;;;;5054788;28;20021;-58
2023/04/29 11:36:00;;;;;;;2.75;1.63;;;;;;;;;;5054612;28;20028;-58
2023/04/29 11:38:26;;;;;;;3.63;1.50;;;;;;;;;;5054507;28;20025;-58
2023/04/29 11:40:52;;;;;;;2.60;1.50;;;;;;;;;;5054444;28;20495;-58
2023/04/29 11:43:19;;;;;;;2.38;1.38;;;;;;;;;;5054669;28;20036;-58
2023/04/29 11:45:45;;;;;;;2.00;1.10;;;;;;;;;;5055229;28;20021;-58
2023/04/29 11:48:21;;;;;;;2.17;1.25;;;;;;;;;;5054132;28;20028;-58
2023/04/29 11:50:48;;;;;;;4.15;1.45;;;;;;;;;;5054210;28;20041;-58
2023/04/29 11:53:14;;;;;;;2.25;1.67;;;;;;;;;;5054775;28;20025;-57
2023/04/29 11:55:44;;;;;;;1.98;1.20;;;;;;;;;;5054677;28;20067;-58
2023/04/29 11:58:10;;;;;;;3.37;1.70;;;;;;;;;;5054637;28;20033;-57
2023/04/29 12:00:36;;;;;;;3.13;1.63;;;;;;;;;;5053918;28;20029;-57
2023/04/29 12:03:07;;;;;;;2.65;1.70;;;;;;;;;;5054179;28;20040;-57
2023/04/29 12:05:33;;;;;;;3.67;1.75;;;;;;;;;;5054909;28;20102;-58
2023/04/29 12:07:59;;;;;;;3.15;2.15;;;;;;;;;;5054006;28;20064;-57
2023/04/29 12:10:25;;;;;;;2.42;1.80;;;;;;;;;;5054065;28;20028;-58
2023/04/29 12:12:51;;;;;;;2.15;1.50;;;;;;;;;;5053900;28;20108;-58
2023/04/29 12:15:17;;;;;;;2.75;2.10;;;;;;;;;;5054254;28;20049;-58
2023/04/29 12:17:45;;;;;;;3.65;1.73;;;;;;;;;;5053044;28;20356;-58
2023/04/29 12:20:11;;;;;;;2.25;1.58;;;;;;;;;;5053759;28;20526;-57
2023/04/29 12:22:37;;;;;;;2.85;1.60;;;;;;;;;;5053678;28;20164;-58
2023/04/29 12:25:03;;;;;;;2.75;1.98;;;;;;;;;;5054088;28;20385;-56
2023/04/29 12:27:30;;;;;;;3.20;2.20;;;;;;;;;;5053561;28;20108;-57
2023/04/29 12:29:57;;;;;;;2.58;2.10;;;;;;;;;;5054472;28;20071;-57
2023/04/29 12:32:24;;;;;;;3.63;2.08;;;;;;;;;;5053546;28;20467;-57
2023/04/29 12:34:51;;;;;;;3.13;2.10;;;;;;;;;;5054156;28;20035;-57
2023/04/29 12:37:17;;;;;;;2.92;2.38;;;;;;;;;;5054216;28;20032;-57
2023/04/29 12:39:43;;;;;;;3.55;2.72;;;;;;;;;;5053820;28;20025;-58
2023/04/29 12:42:17;;;;;;;3.63;2.70;;;;;;;;;;5053475;28;20029;-58
2023/04/29 12:44:46;;;;;;;2.92;2.17;;;;;;;;;;5054117;28;20083;-57
2023/04/29 12:47:12;;;;;;;2.97;2.25;;;;;;;;;;5053728;28;20040;-56
2023/04/29 12:49:42;;;;;;;3.60;2.42;;;;;;;;;;5053343;28;20026;-57
2023/04/29 12:52:09;;;;;;;3.30;2.77;;;;;;;;;;5053596;28;20060;-58
2023/04/29 12:54:44;;;;;;;4.93;3.67;;;;;;;;;;5054224;28;20021;-57
2023/04/29 12:57:10;;;;;;;5.50;3.90;;;;;;;;;;5054109;28;20107;-58
2023/04/29 12:59:37;;;;;;;4.60;3.13;;;;;;;;;;5053593;28;20023;-58
2023/04/29 13:02:03;;;;;;;5.35;3.50;;;;;;;;;;5053205;28;20056;-57
2023/04/29 13:04:29;;;;;;;3.88;2.85;;;;;;;;;;5053643;28;20093;-58
2023/04/29 13:06:59;;;;;;;3.72;3.00;;;;;;;;;;5053908;28;20033;-57
2023/04/29 13:09:27;;;;;;;5.40;3.75;;;;;;;;;;5053390;28;20021;-58
2023/04/29 13:11:53;;;;;;;6.78;3.40;;;;;;;;;;5052835;28;20472;-58
2023/04/29 13:14:20;;;;;;;4.35;3.42;;;;;;;;;;5053762;28;20045;-58
2023/04/29 13:16:46;;;;;;;4.97;3.58;;;;;;;;;;5053201;28;20028;-57
2023/04/29 13:19:12;;;;;;;4.10;3.70;;;;;;;;;;5053237;28;20025;-58
2023/04/29 13:21:38;;;;;;;3.83;3.03;;;;;;;;;;5053705;28;20104;-57
2023/04/29 13:24:04;;;;;;;2.95;2.60;;;;;;;;;;5052931;28;20033;-57
2023/04/29 13:26:30;;;;;;;4.97;3.90;;;;;;;;;;5053687;28;20358;-58
2023/04/29 13:28:56;;;;;;;4.45;3.60;;;;;;;;;;5055242;28;20119;-57
2023/04/29 13:31:22;;;;;;;4.38;3.70;;;;;;;;;;5056917;28;20048;-57
2023/04/29 13:33:48;;;;;;;4.75;3.97;;;;;;;;;;5056837;28;20021;-58
2023/04/29 13:36:14;;;;;;;3.83;3.45;;;;;;;;;;5057170;28;20032;-57
2023/04/29 13:38:40;;;;;;;5.10;3.50;;;;;;;;;;5057312;28;20025;-58
2023/04/29 13:41:06;;;;;;;5.10;4.20;;;;;;;;;;5057040;28;20095;-57
2023/04/29 13:43:32;;;;;;;4.10;3.63;;;;;;;;;;5057299;28;20029;-57
2023/04/29 13:45:58;;;;;;;5.35;3.92;;;;;;;;;;5056836;28;20052;-58
2023/04/29 13:48:24;;;;;;;4.60;3.92;;;;;;;;;;5056597;28;20036;-58
2023/04/29 13:50:50;;;;;;;3.67;3.30;;;;;;;;;;5056607;28;20032;-57
2023/04/29 13:53:16;;;;;;;4.65;3.45;;;;;;;;;;5056292;28;20021;-58
2023/04/29 13:55:42;;;;;;;4.57;4.00;;;;;;;;;;5056980;28;20033;-58
2023/04/29 13:58:08;;;;;;;4.97;3.88;;;;;;;;;;5055987;28;20356;-57
2023/04/29 14:00:34;;;;;;;7.50;4.03;;;;;;;;;;5055910;28;20028;-57
2023/04/29 14:03:00;;;;;;;5.20;3.88;;;;;;;;;;5056710;28;20112;-57
2023/04/29 14:05:27;;;;;;;5.25;4.35;;;;;;;;;;5056035;28;20025;-57
2023/04/29 14:07:53;;;;;;;5.15;3.85;;;;;;;;;;5055991;28;20068;-58
2023/04/29 14:10:19;;;;;;;5.20;4.40;;;;;;;;;;5056612;28;20061;-58
2023/04/29 14:12:46;;;;;;;5.28;3.78;;;;;;;;;;5055846;28;20124;-58
2023/04/29 14:15:12;;;;;;;4.65;3.90;;;;;;;;;;5056744;28;20517;-58
2023/04/29 14:17:38;;;;;;;6.00;4.45;;;;;;;;;;5056094;28;20376;-58
2023/04/29 14:20:04;;;;;;;4.97;4.03;;;;;;;;;;5055828;28;20028;-58
2023/04/29 14:22:30;;;;;;;7.68;4.35;;;;;;;;;;5055768;28;20487;-57
2023/04/29 14:24:56;;;;;;;5.00;3.83;;;;;;;;;;5056099;28;20036;-58
2023/04/29 14:27:22;;;;;;;5.28;4.38;;;;;;;;;;5055673;28;20028;-58
2023/04/29 14:29:48;;;;;;;4.60;3.72;;;;;;;;;;5056213;28;20070;-58
2023/04/29 14:32:14;;;;;;;5.03;3.95;;;;;;;;;;5055304;28;20475;-57
2023/04/29 14:34:41;;;;;;;4.57;3.53;;;;;;;;;;5055668;28;20367;-58
2023/04/29 14:37:07;;;;;;;5.68;4.38;;;;;;;;;;5056182;28;20452;-57
2023/04/29 14:39:33;;;;;;;4.93;4.20;;;;;;;;;;5055021;28;20043;-58
2023/04/29 14:41:59;;;;;;;5.43;4.57;;;;;;;;;;5055163;28;20056;-57
2023/04/29 14:44:25;;;;;;;5.75;4.30;;;;;;;;;;5055973;28;20063;-58